KEFD/EFD METAR and TAF weather

Enter ICAO airport designator
Station Type Date Time Source
KEFD METAR 2021/09/28 15:30 UTC NOAA

KEFD 281530Z 21004KT 10SM FEW037 BKN048 BKN090 28/25 A2992 RMK LTG DSNT ALQDS


Station Type Date Time Source
KEFD Decoded METAR 2021/09/28 15:30 UTC NOAA

Houston / Ellington, TX, United States (KEFD) 29-36N 095-10W
Sep 28, 2021 - 11:30 AM EDT / 2021.09.28 1530 UTC
Wind: from the SSW (210 degrees) at 5 MPH (4 KT):0
Visibility: 10 mile(s):0
Sky conditions: mostly cloudy
Weather: Lightning observed
Temperature: 82 F (28 C)
Dew Point: 77 F (25 C)
Relative Humidity: 83%
Pressure (altimeter): 29.92 in. Hg (1013 hPa)
ob: KEFD 281530Z 21004KT 10SM FEW037 BKN048 BKN090 28/25 A2992 RMK LTG DSNT ALQDS
cycle: 15

Station Type Date Time Source
KEFD TAF 2021/09/28 12:16 UTC NOAA

TAF KEFD 281200Z 2812/2918 VRB06KT 9999 SCT015 BKN090 QNH2990INS
TEMPO 2812/2815 16010G20KT 4800 -TSRA BKN015CB BKN040
BECMG 2814/2815 VRB06KT 9999 BKN010 QNH2992INS
BECMG 2815/2816 VRB06KT 8000 -SHRA BKN020 OVC040 QNH2992INS
TEMPO 2816/2820 16020G30KT 8000 -TSRA BKN010CB
BECMG 2823/2824 VRB06KT 9999 NSW SCT015 BKN025 QNH2981INS TX28/2818Z TN24/2912Z

Example: see airport list